sensor_id;sensor_type;location;lat;lon;timestamp;P1;durP1;ratioP1;P2;durP2;ratioP2
29634;SDS011;16557;54.762;56.068;2022-08-18T00:04:53;6.62;;;2.20;;
29634;SDS011;16557;54.762;56.068;2022-08-18T00:07:25;2.72;;;2.00;;
29634;SDS011;16557;54.762;56.068;2022-08-18T00:09:56;7.83;;;2.00;;
29634;SDS011;16557;54.762;56.068;2022-08-18T00:12:30;4.28;;;2.10;;
29634;SDS011;16557;54.762;56.068;2022-08-18T00:14:59;5.03;;;1.90;;
29634;SDS011;16557;54.762;56.068;2022-08-18T00:17:31;3.00;;;1.65;;
29634;SDS011;16557;54.762;56.068;2022-08-18T00:20:02;3.37;;;2.30;;
29634;SDS011;16557;54.762;56.068;2022-08-18T00:22:35;4.22;;;2.17;;
29634;SDS011;16557;54.762;56.068;2022-08-18T00:25:06;2.72;;;2.22;;
29634;SDS011;16557;54.762;56.068;2022-08-18T00:27:37;6.37;;;2.30;;
29634;SDS011;16557;54.762;56.068;2022-08-18T00:30:09;4.78;;;2.30;;
29634;SDS011;16557;54.762;56.068;2022-08-18T00:32:41;4.67;;;2.00;;
29634;SDS011;16557;54.762;56.068;2022-08-18T00:35:16;8.30;;;2.42;;
29634;SDS011;16557;54.762;56.068;2022-08-18T00:37:51;5.67;;;2.10;;
29634;SDS011;16557;54.762;56.068;2022-08-18T00:40:22;4.40;;;2.30;;
29634;SDS011;16557;54.762;56.068;2022-08-18T00:42:56;4.00;;;2.20;;
29634;SDS011;16557;54.762;56.068;2022-08-18T00:45:29;6.78;;;3.37;;
29634;SDS011;16557;54.762;56.068;2022-08-18T00:48:03;9.20;;;4.62;;
29634;SDS011;16557;54.762;56.068;2022-08-18T00:50:38;8.95;;;4.28;;
29634;SDS011;16557;54.762;56.068;2022-08-18T00:53:25;7.70;;;3.42;;
29634;SDS011;16557;54.762;56.068;2022-08-18T00:55:54;7.08;;;3.17;;
29634;SDS011;16557;54.762;56.068;2022-08-18T00:58:27;6.00;;;2.80;;
29634;SDS011;16557;54.762;56.068;2022-08-18T01:00:58;7.60;;;2.50;;
29634;SDS011;16557;54.762;56.068;2022-08-18T01:03:31;3.95;;;2.40;;
29634;SDS011;16557;54.762;56.068;2022-08-18T01:06:02;5.05;;;2.25;;
29634;SDS011;16557;54.762;56.068;2022-08-18T01:08:32;5.85;;;2.22;;
29634;SDS011;16557;54.762;56.068;2022-08-18T01:11:01;5.28;;;2.33;;
29634;SDS011;16557;54.762;56.068;2022-08-18T01:13:31;5.22;;;2.22;;
29634;SDS011;16557;54.762;56.068;2022-08-18T01:16:00;4.42;;;2.50;;
29634;SDS011;16557;54.762;56.068;2022-08-18T01:18:31;4.85;;;2.17;;
29634;SDS011;16557;54.762;56.068;2022-08-18T01:21:14;8.68;;;2.72;;
29634;SDS011;16557;54.762;56.068;2022-08-18T01:24:02;4.60;;;2.30;;
29634;SDS011;16557;54.762;56.068;2022-08-18T01:26:40;5.03;;;2.65;;
29634;SDS011;16557;54.762;56.068;2022-08-18T01:29:05;6.45;;;2.58;;
29634;SDS011;16557;54.762;56.068;2022-08-18T01:31:43;5.17;;;2.40;;
29634;SDS011;16557;54.762;56.068;2022-08-18T01:34:17;3.22;;;2.27;;
29634;SDS011;16557;54.762;56.068;2022-08-18T01:36:49;8.05;;;2.60;;
29634;SDS011;16557;54.762;56.068;2022-08-18T01:39:20;5.78;;;2.70;;
29634;SDS011;16557;54.762;56.068;2022-08-18T01:41:50;7.45;;;2.90;;
29634;SDS011;16557;54.762;56.068;2022-08-18T01:44:19;5.60;;;3.10;;
29634;SDS011;16557;54.762;56.068;2022-08-18T01:46:49;7.22;;;3.15;;
29634;SDS011;16557;54.762;56.068;2022-08-18T01:49:19;5.95;;;2.95;;
29634;SDS011;16557;54.762;56.068;2022-08-18T01:51:49;10.63;;;2.55;;
29634;SDS011;16557;54.762;56.068;2022-08-18T01:54:20;5.00;;;2.12;;
29634;SDS011;16557;54.762;56.068;2022-08-18T01:56:49;18.00;;;3.65;;
29634;SDS011;16557;54.762;56.068;2022-08-18T01:59:19;5.53;;;2.62;;
29634;SDS011;16557;54.762;56.068;2022-08-18T02:01:48;7.03;;;2.40;;
29634;SDS011;16557;54.762;56.068;2022-08-18T02:04:18;4.67;;;2.27;;
29634;SDS011;16557;54.762;56.068;2022-08-18T02:06:50;7.75;;;3.15;;
29634;SDS011;16557;54.762;56.068;2022-08-18T02:09:19;7.67;;;2.75;;
29634;SDS011;16557;54.762;56.068;2022-08-18T02:11:48;9.73;;;2.67;;
29634;SDS011;16557;54.762;56.068;2022-08-18T02:14:18;8.80;;;3.08;;
29634;SDS011;16557;54.762;56.068;2022-08-18T02:16:47;33.80;;;23.57;;
29634;SDS011;16557;54.762;56.068;2022-08-18T02:19:18;35.92;;;19.23;;
29634;SDS011;16557;54.762;56.068;2022-08-18T02:21:47;32.70;;;23.73;;
29634;SDS011;16557;54.762;56.068;2022-08-18T02:24:19;16.95;;;13.60;;
29634;SDS011;16557;54.762;56.068;2022-08-18T02:26:48;7.08;;;4.58;;
29634;SDS011;16557;54.762;56.068;2022-08-18T02:29:17;9.40;;;3.67;;
29634;SDS011;16557;54.762;56.068;2022-08-18T02:31:46;7.80;;;3.08;;
29634;SDS011;16557;54.762;56.068;2022-08-18T02:34:16;8.98;;;3.35;;
29634;SDS011;16557;54.762;56.068;2022-08-18T02:36:45;10.20;;;4.20;;
29634;SDS011;16557;54.762;56.068;2022-08-18T02:39:15;10.20;;;3.02;;
29634;SDS011;16557;54.762;56.068;2022-08-18T02:41:44;13.18;;;3.02;;
29634;SDS011;16557;54.762;56.068;2022-08-18T02:44:14;5.67;;;3.02;;
29634;SDS011;16557;54.762;56.068;2022-08-18T02:46:43;12.47;;;3.58;;
29634;SDS011;16557;54.762;56.068;2022-08-18T02:49:14;9.85;;;3.12;;
29634;SDS011;16557;54.762;56.068;2022-08-18T02:51:43;8.48;;;2.80;;
29634;SDS011;16557;54.762;56.068;2022-08-18T02:54:12;9.10;;;2.87;;
29634;SDS011;16557;54.762;56.068;2022-08-18T02:56:42;8.33;;;3.10;;
29634;SDS011;16557;54.762;56.068;2022-08-18T02:59:13;11.70;;;3.42;;
29634;SDS011;16557;54.762;56.068;2022-08-18T03:01:44;11.60;;;3.27;;
29634;SDS011;16557;54.762;56.068;2022-08-18T03:04:16;10.95;;;3.75;;
29634;SDS011;16557;54.762;56.068;2022-08-18T03:06:47;11.30;;;3.57;;
29634;SDS011;16557;54.762;56.068;2022-08-18T03:09:16;10.65;;;3.17;;
29634;SDS011;16557;54.762;56.068;2022-08-18T03:11:46;6.67;;;3.37;;
29634;SDS011;16557;54.762;56.068;2022-08-18T03:14:16;11.60;;;3.55;;
29634;SDS011;16557;54.762;56.068;2022-08-18T03:16:45;8.23;;;3.60;;
29634;SDS011;16557;54.762;56.068;2022-08-18T03:19:15;15.88;;;3.30;;
29634;SDS011;16557;54.762;56.068;2022-08-18T03:21:45;8.73;;;2.98;;
29634;SDS011;16557;54.762;56.068;2022-08-18T03:24:15;10.72;;;3.17;;
29634;SDS011;16557;54.762;56.068;2022-08-18T03:26:47;12.65;;;3.27;;
29634;SDS011;16557;54.762;56.068;2022-08-18T03:29:17;8.10;;;3.65;;
29634;SDS011;16557;54.762;56.068;2022-08-18T03:31:48;9.03;;;3.77;;
29634;SDS011;16557;54.762;56.068;2022-08-18T03:34:18;13.83;;;3.83;;
29634;SDS011;16557;54.762;56.068;2022-08-18T03:36:48;13.22;;;3.12;;
29634;SDS011;16557;54.762;56.068;2022-08-18T03:39:18;12.60;;;3.42;;
29634;SDS011;16557;54.762;56.068;2022-08-18T03:41:50;7.15;;;3.20;;
29634;SDS011;16557;54.762;56.068;2022-08-18T03:44:23;12.60;;;3.35;;
29634;SDS011;16557;54.762;56.068;2022-08-18T03:46:54;9.15;;;3.25;;
29634;SDS011;16557;54.762;56.068;2022-08-18T03:49:23;16.55;;;3.55;;
29634;SDS011;16557;54.762;56.068;2022-08-18T03:51:53;8.88;;;3.35;;
29634;SDS011;16557;54.762;56.068;2022-08-18T03:54:23;6.35;;;2.55;;
29634;SDS011;16557;54.762;56.068;2022-08-18T03:56:52;7.28;;;3.10;;
29634;SDS011;16557;54.762;56.068;2022-08-18T03:59:22;12.05;;;3.30;;
29634;SDS011;16557;54.762;56.068;2022-08-18T04:01:53;8.90;;;3.35;;
29634;SDS011;16557;54.762;56.068;2022-08-18T04:04:24;10.90;;;6.12;;
29634;SDS011;16557;54.762;56.068;2022-08-18T04:06:55;9.68;;;3.50;;
29634;SDS011;16557;54.762;56.068;2022-08-18T04:09:28;6.07;;;3.70;;
29634;SDS011;16557;54.762;56.068;2022-08-18T04:12:02;6.50;;;3.27;;
29634;SDS011;16557;54.762;56.068;2022-08-18T04:14:34;7.60;;;3.55;;
29634;SDS011;16557;54.762;56.068;2022-08-18T04:17:04;7.70;;;3.42;;
29634;SDS011;16557;54.762;56.068;2022-08-18T04:19:34;10.58;;;3.70;;
29634;SDS011;16557;54.762;56.068;2022-08-18T04:22:04;6.83;;;3.08;;
29634;SDS011;16557;54.762;56.068;2022-08-18T04:24:33;7.97;;;3.05;;
29634;SDS011;16557;54.762;56.068;2022-08-18T04:27:02;13.62;;;3.55;;
29634;SDS011;16557;54.762;56.068;2022-08-18T04:29:32;10.70;;;4.83;;
29634;SDS011;16557;54.762;56.068;2022-08-18T04:32:01;11.57;;;3.35;;
29634;SDS011;16557;54.762;56.068;2022-08-18T04:34:31;10.00;;;3.35;;
29634;SDS011;16557;54.762;56.068;2022-08-18T04:37:00;10.60;;;3.47;;
29634;SDS011;16557;54.762;56.068;2022-08-18T04:39:30;6.50;;;2.83;;
29634;SDS011;16557;54.762;56.068;2022-08-18T04:41:59;6.62;;;3.20;;
29634;SDS011;16557;54.762;56.068;2022-08-18T04:44:30;5.78;;;3.00;;
29634;SDS011;16557;54.762;56.068;2022-08-18T04:46:59;8.98;;;3.33;;
29634;SDS011;16557;54.762;56.068;2022-08-18T04:49:28;12.33;;;4.85;;
29634;SDS011;16557;54.762;56.068;2022-08-18T04:51:58;15.55;;;4.22;;
29634;SDS011;16557;54.762;56.068;2022-08-18T04:54:45;12.58;;;3.98;;
29634;SDS011;16557;54.762;56.068;2022-08-18T04:57:15;7.78;;;3.40;;
29634;SDS011;16557;54.762;56.068;2022-08-18T04:59:47;6.35;;;2.92;;
29634;SDS011;16557;54.762;56.068;2022-08-18T05:02:17;8.28;;;3.75;;
29634;SDS011;16557;54.762;56.068;2022-08-18T05:04:49;7.78;;;3.02;;
29634;SDS011;16557;54.762;56.068;2022-08-18T05:07:20;14.87;;;4.08;;
29634;SDS011;16557;54.762;56.068;2022-08-18T05:09:49;7.85;;;3.35;;
29634;SDS011;16557;54.762;56.068;2022-08-18T05:12:20;7.03;;;3.47;;
29634;SDS011;16557;54.762;56.068;2022-08-18T05:14:49;8.35;;;3.27;;
29634;SDS011;16557;54.762;56.068;2022-08-18T05:17:20;5.87;;;3.22;;
29634;SDS011;16557;54.762;56.068;2022-08-18T05:19:50;6.00;;;3.60;;
29634;SDS011;16557;54.762;56.068;2022-08-18T05:22:20;7.75;;;3.70;;
29634;SDS011;16557;54.762;56.068;2022-08-18T05:24:49;12.65;;;4.17;;
29634;SDS011;16557;54.762;56.068;2022-08-18T05:27:19;11.10;;;3.22;;
29634;SDS011;16557;54.762;56.068;2022-08-18T05:29:48;8.25;;;3.90;;
29634;SDS011;16557;54.762;56.068;2022-08-18T05:32:17;7.50;;;3.10;;
29634;SDS011;16557;54.762;56.068;2022-08-18T05:34:46;8.98;;;2.87;;
29634;SDS011;16557;54.762;56.068;2022-08-18T05:37:22;7.65;;;3.80;;
29634;SDS011;16557;54.762;56.068;2022-08-18T05:39:56;6.03;;;3.05;;
29634;SDS011;16557;54.762;56.068;2022-08-18T05:42:26;10.10;;;2.77;;
29634;SDS011;16557;54.762;56.068;2022-08-18T05:44:58;6.53;;;3.77;;
29634;SDS011;16557;54.762;56.068;2022-08-18T05:47:30;5.95;;;2.90;;
29634;SDS011;16557;54.762;56.068;2022-08-18T05:50:04;6.47;;;3.20;;
29634;SDS011;16557;54.762;56.068;2022-08-18T05:52:52;6.03;;;3.08;;
29634;SDS011;16557;54.762;56.068;2022-08-18T05:55:40;8.30;;;3.25;;
29634;SDS011;16557;54.762;56.068;2022-08-18T06:01:10;7.22;;;2.85;;
29634;SDS011;16557;54.762;56.068;2022-08-18T06:03:39;5.33;;;3.20;;
29634;SDS011;16557;54.762;56.068;2022-08-18T06:06:19;7.17;;;3.33;;
29634;SDS011;16557;54.762;56.068;2022-08-18T06:11:49;6.80;;;3.40;;
29634;SDS011;16557;54.762;56.068;2022-08-18T06:14:19;4.72;;;2.83;;
29634;SDS011;16557;54.762;56.068;2022-08-18T06:16:55;4.65;;;3.10;;
29634;SDS011;16557;54.762;56.068;2022-08-18T06:25:13;6.42;;;2.98;;
29634;SDS011;16557;54.762;56.068;2022-08-18T06:27:49;13.60;;;4.47;;
29634;SDS011;16557;54.762;56.068;2022-08-18T06:39:00;8.83;;;3.62;;
29634;SDS011;16557;54.762;56.068;2022-08-18T06:41:38;15.25;;;3.70;;
29634;SDS011;16557;54.762;56.068;2022-08-18T06:44:15;7.90;;;3.35;;
29634;SDS011;16557;54.762;56.068;2022-08-18T06:46:55;7.92;;;2.80;;
29634;SDS011;16557;54.762;56.068;2022-08-18T06:52:21;9.53;;;3.25;;
29634;SDS011;16557;54.762;56.068;2022-08-18T06:54:57;15.00;;;3.42;;
29634;SDS011;16557;54.762;56.068;2022-08-18T06:57:35;12.03;;;3.45;;
29634;SDS011;16557;54.762;56.068;2022-08-18T07:05:30;4.47;;;2.87;;
29634;SDS011;16557;54.762;56.068;2022-08-18T07:10:46;5.15;;;2.98;;
29634;SDS011;16557;54.762;56.068;2022-08-18T07:13:15;4.58;;;2.60;;
29634;SDS011;16557;54.762;56.068;2022-08-18T07:15:46;6.60;;;2.92;;
29634;SDS011;16557;54.762;56.068;2022-08-18T07:18:24;7.10;;;3.35;;
29634;SDS011;16557;54.762;56.068;2022-08-18T07:20:58;11.18;;;3.00;;
29634;SDS011;16557;54.762;56.068;2022-08-18T07:23:29;8.55;;;2.90;;
29634;SDS011;16557;54.762;56.068;2022-08-18T07:28:43;12.40;;;3.17;;
29634;SDS011;16557;54.762;56.068;2022-08-18T07:34:09;4.75;;;3.67;;
29634;SDS011;16557;54.762;56.068;2022-08-18T07:36:43;4.47;;;3.12;;
29634;SDS011;16557;54.762;56.068;2022-08-18T07:39:14;5.75;;;2.77;;
29634;SDS011;16557;54.762;56.068;2022-08-18T07:42:31;9.05;;;3.45;;
29634;SDS011;16557;54.762;56.068;2022-08-18T07:44:45;4.00;;;2.42;;
29634;SDS011;16557;54.762;56.068;2022-08-18T07:47:17;16.77;;;3.65;;
29634;SDS011;16557;54.762;56.068;2022-08-18T07:49:58;7.00;;;2.55;;
29634;SDS011;16557;54.762;56.068;2022-08-18T07:52:41;6.03;;;2.30;;
29634;SDS011;16557;54.762;56.068;2022-08-18T07:55:24;6.80;;;2.83;;
29634;SDS011;16557;54.762;56.068;2022-08-18T08:03:46;7.15;;;2.40;;
29634;SDS011;16557;54.762;56.068;2022-08-18T08:06:38;5.53;;;2.45;;
29634;SDS011;16557;54.762;56.068;2022-08-18T08:11:58;7.35;;;2.70;;
29634;SDS011;16557;54.762;56.068;2022-08-18T08:14:47;7.58;;;2.55;;
29634;SDS011;16557;54.762;56.068;2022-08-18T08:17:31;9.93;;;2.75;;
29634;SDS011;16557;54.762;56.068;2022-08-18T08:20:32;4.80;;;2.25;;
29634;SDS011;16557;54.762;56.068;2022-08-18T08:23:24;8.20;;;3.12;;
29634;SDS011;16557;54.762;56.068;2022-08-18T08:32:34;9.20;;;2.50;;
29634;SDS011;16557;54.762;56.068;2022-08-18T08:35:57;2.85;;;2.20;;
29634;SDS011;16557;54.762;56.068;2022-08-18T08:38:07;10.68;;;2.65;;
29634;SDS011;16557;54.762;56.068;2022-08-18T08:40:48;6.05;;;2.37;;
29634;SDS011;16557;54.762;56.068;2022-08-18T08:44:15;9.70;;;2.80;;
29634;SDS011;16557;54.762;56.068;2022-08-18T08:49:57;9.93;;;2.90;;
29634;SDS011;16557;54.762;56.068;2022-08-18T08:52:35;11.10;;;2.40;;
29634;SDS011;16557;54.762;56.068;2022-08-18T09:00:48;4.20;;;2.00;;
29634;SDS011;16557;54.762;56.068;2022-08-18T09:09:05;7.85;;;2.60;;
29634;SDS011;16557;54.762;56.068;2022-08-18T09:11:56;13.10;;;2.85;;
29634;SDS011;16557;54.762;56.068;2022-08-18T09:14:36;7.05;;;2.22;;
29634;SDS011;16557;54.762;56.068;2022-08-18T09:17:15;7.90;;;2.22;;
29634;SDS011;16557;54.762;56.068;2022-08-18T09:20:07;5.58;;;2.80;;
29634;SDS011;16557;54.762;56.068;2022-08-18T09:22:55;6.75;;;3.15;;
29634;SDS011;16557;54.762;56.068;2022-08-18T09:30:49;5.03;;;1.82;;
29634;SDS011;16557;54.762;56.068;2022-08-18T09:33:29;10.72;;;1.90;;
29634;SDS011;16557;54.762;56.068;2022-08-18T09:36:01;10.43;;;1.90;;
29634;SDS011;16557;54.762;56.068;2022-08-18T09:38:48;5.10;;;1.57;;
29634;SDS011;16557;54.762;56.068;2022-08-18T09:41:50;12.47;;;2.08;;
29634;SDS011;16557;54.762;56.068;2022-08-18T09:49:58;3.60;;;1.50;;
29634;SDS011;16557;54.762;56.068;2022-08-18T09:54:58;8.55;;;2.17;;
29634;SDS011;16557;54.762;56.068;2022-08-18T10:10:58;10.55;;;1.92;;
29634;SDS011;16557;54.762;56.068;2022-08-18T10:19:00;8.18;;;1.60;;
29634;SDS011;16557;54.762;56.068;2022-08-18T10:27:05;7.47;;;1.80;;
29634;SDS011;16557;54.762;56.068;2022-08-18T10:29:43;6.40;;;1.50;;
29634;SDS011;16557;54.762;56.068;2022-08-18T10:34:50;4.12;;;1.55;;
29634;SDS011;16557;54.762;56.068;2022-08-18T10:37:23;4.33;;;1.17;;
29634;SDS011;16557;54.762;56.068;2022-08-18T10:40:04;5.70;;;1.53;;
29634;SDS011;16557;54.762;56.068;2022-08-18T10:42:38;4.53;;;1.65;;
29634;SDS011;16557;54.762;56.068;2022-08-18T10:50:38;7.37;;;1.90;;
29634;SDS011;16557;54.762;56.068;2022-08-18T10:53:15;4.92;;;1.82;;
29634;SDS011;16557;54.762;56.068;2022-08-18T10:55:48;10.15;;;2.15;;
29634;SDS011;16557;54.762;56.068;2022-08-18T10:58:33;3.52;;;2.30;;
29634;SDS011;16557;54.762;56.068;2022-08-18T11:07:00;5.12;;;1.60;;
29634;SDS011;16557;54.762;56.068;2022-08-18T11:09:29;8.83;;;1.60;;
29634;SDS011;16557;54.762;56.068;2022-08-18T11:11:56;3.30;;;1.37;;
29634;SDS011;16557;54.762;56.068;2022-08-18T11:20:05;6.10;;;1.20;;
29634;SDS011;16557;54.762;56.068;2022-08-18T11:22:36;11.68;;;2.92;;
29634;SDS011;16557;54.762;56.068;2022-08-18T11:25:18;4.80;;;1.50;;
29634;SDS011;16557;54.762;56.068;2022-08-18T11:27:47;3.05;;;1.52;;
29634;SDS011;16557;54.762;56.068;2022-08-18T11:30:17;5.28;;;1.30;;
29634;SDS011;16557;54.762;56.068;2022-08-18T11:32:47;8.53;;;1.27;;
29634;SDS011;16557;54.762;56.068;2022-08-18T11:35:18;6.87;;;1.42;;
29634;SDS011;16557;54.762;56.068;2022-08-18T11:40:47;3.65;;;1.15;;
29634;SDS011;16557;54.762;56.068;2022-08-18T11:43:13;5.08;;;1.40;;
29634;SDS011;16557;54.762;56.068;2022-08-18T11:45:55;4.60;;;1.65;;
29634;SDS011;16557;54.762;56.068;2022-08-18T11:51:17;5.33;;;1.67;;
29634;SDS011;16557;54.762;56.068;2022-08-18T11:56:32;8.35;;;1.50;;
29634;SDS011;16557;54.762;56.068;2022-08-18T11:59:06;5.83;;;1.70;;
29634;SDS011;16557;54.762;56.068;2022-08-18T12:04:22;6.30;;;1.47;;
29634;SDS011;16557;54.762;56.068;2022-08-18T12:06:54;6.03;;;1.60;;
29634;SDS011;16557;54.762;56.068;2022-08-18T12:14:55;5.92;;;1.80;;
29634;SDS011;16557;54.762;56.068;2022-08-18T12:17:26;3.30;;;1.40;;
29634;SDS011;16557;54.762;56.068;2022-08-18T12:19:56;6.05;;;1.90;;
29634;SDS011;16557;54.762;56.068;2022-08-18T12:22:29;5.80;;;1.40;;
29634;SDS011;16557;54.762;56.068;2022-08-18T12:24:58;8.38;;;2.05;;
29634;SDS011;16557;54.762;56.068;2022-08-18T12:27:29;5.22;;;1.30;;
29634;SDS011;16557;54.762;56.068;2022-08-18T12:29:58;9.45;;;1.57;;
29634;SDS011;16557;54.762;56.068;2022-08-18T12:32:30;3.27;;;1.12;;
29634;SDS011;16557;54.762;56.068;2022-08-18T12:35:00;7.28;;;1.45;;
29634;SDS011;16557;54.762;56.068;2022-08-18T12:37:33;5.95;;;1.12;;
29634;SDS011;16557;54.762;56.068;2022-08-18T12:40:04;6.40;;;1.37;;
29634;SDS011;16557;54.762;56.068;2022-08-18T12:42:34;4.55;;;1.92;;
29634;SDS011;16557;54.762;56.068;2022-08-18T12:45:04;7.65;;;1.30;;
29634;SDS011;16557;54.762;56.068;2022-08-18T12:47:36;3.33;;;1.20;;
29634;SDS011;16557;54.762;56.068;2022-08-18T12:50:06;15.05;;;1.60;;
29634;SDS011;16557;54.762;56.068;2022-08-18T12:52:36;1.87;;;1.15;;
29634;SDS011;16557;54.762;56.068;2022-08-18T12:55:05;4.75;;;1.22;;
29634;SDS011;16557;54.762;56.068;2022-08-18T12:57:36;6.42;;;1.20;;
29634;SDS011;16557;54.762;56.068;2022-08-18T13:00:05;7.42;;;1.40;;
29634;SDS011;16557;54.762;56.068;2022-08-18T13:02:36;8.20;;;1.10;;
29634;SDS011;16557;54.762;56.068;2022-08-18T13:05:05;30.57;;;2.25;;
29634;SDS011;16557;54.762;56.068;2022-08-18T13:07:35;4.17;;;1.20;;
29634;SDS011;16557;54.762;56.068;2022-08-18T13:10:04;4.20;;;1.27;;
29634;SDS011;16557;54.762;56.068;2022-08-18T13:12:34;11.28;;;1.27;;
29634;SDS011;16557;54.762;56.068;2022-08-18T13:15:03;7.50;;;1.62;;
29634;SDS011;16557;54.762;56.068;2022-08-18T13:17:35;3.20;;;0.98;;
29634;SDS011;16557;54.762;56.068;2022-08-18T13:20:07;4.47;;;1.20;;
29634;SDS011;16557;54.762;56.068;2022-08-18T13:22:37;3.70;;;1.67;;
29634;SDS011;16557;54.762;56.068;2022-08-18T13:25:10;5.28;;;1.35;;
29634;SDS011;16557;54.762;56.068;2022-08-18T13:27:41;4.87;;;1.40;;
29634;SDS011;16557;54.762;56.068;2022-08-18T13:30:11;3.33;;;1.22;;
29634;SDS011;16557;54.762;56.068;2022-08-18T13:32:42;2.05;;;1.15;;
29634;SDS011;16557;54.762;56.068;2022-08-18T13:35:11;4.62;;;1.50;;
29634;SDS011;16557;54.762;56.068;2022-08-18T13:37:40;6.00;;;1.50;;
29634;SDS011;16557;54.762;56.068;2022-08-18T13:40:10;6.05;;;1.65;;
29634;SDS011;16557;54.762;56.068;2022-08-18T13:42:44;5.65;;;2.10;;
29634;SDS011;16557;54.762;56.068;2022-08-18T13:45:16;6.90;;;1.95;;
29634;SDS011;16557;54.762;56.068;2022-08-18T13:47:47;5.07;;;1.53;;
29634;SDS011;16557;54.762;56.068;2022-08-18T13:50:17;7.03;;;1.70;;
29634;SDS011;16557;54.762;56.068;2022-08-18T13:52:47;15.13;;;1.98;;
29634;SDS011;16557;54.762;56.068;2022-08-18T13:55:16;9.48;;;1.60;;
29634;SDS011;16557;54.762;56.068;2022-08-18T13:57:46;3.83;;;1.65;;
29634;SDS011;16557;54.762;56.068;2022-08-18T14:00:17;8.28;;;3.00;;
29634;SDS011;16557;54.762;56.068;2022-08-18T14:02:48;5.87;;;1.60;;
29634;SDS011;16557;54.762;56.068;2022-08-18T14:05:23;10.03;;;2.62;;
29634;SDS011;16557;54.762;56.068;2022-08-18T14:07:53;9.80;;;5.78;;
29634;SDS011;16557;54.762;56.068;2022-08-18T14:10:23;8.68;;;1.65;;
29634;SDS011;16557;54.762;56.068;2022-08-18T14:12:53;8.13;;;2.15;;
29634;SDS011;16557;54.762;56.068;2022-08-18T14:15:24;7.80;;;2.60;;
29634;SDS011;16557;54.762;56.068;2022-08-18T14:17:55;5.55;;;1.47;;
29634;SDS011;16557;54.762;56.068;2022-08-18T14:20:24;9.63;;;1.95;;
29634;SDS011;16557;54.762;56.068;2022-08-18T14:23:11;4.33;;;2.17;;
29634;SDS011;16557;54.762;56.068;2022-08-18T14:25:58;3.35;;;1.92;;
29634;SDS011;16557;54.762;56.068;2022-08-18T14:28:45;6.58;;;2.02;;
29634;SDS011;16557;54.762;56.068;2022-08-18T14:31:16;10.80;;;2.40;;
29634;SDS011;16557;54.762;56.068;2022-08-18T14:33:46;7.20;;;2.55;;
29634;SDS011;16557;54.762;56.068;2022-08-18T14:36:16;4.80;;;2.12;;
29634;SDS011;16557;54.762;56.068;2022-08-18T14:38:45;14.73;;;2.25;;
29634;SDS011;16557;54.762;56.068;2022-08-18T14:41:14;13.08;;;3.45;;
29634;SDS011;16557;54.762;56.068;2022-08-18T14:43:44;10.55;;;2.17;;
29634;SDS011;16557;54.762;56.068;2022-08-18T14:46:13;11.48;;;3.30;;
29634;SDS011;16557;54.762;56.068;2022-08-18T14:48:42;6.03;;;2.37;;
29634;SDS011;16557;54.762;56.068;2022-08-18T14:51:11;5.28;;;1.98;;
29634;SDS011;16557;54.762;56.068;2022-08-18T14:53:41;7.33;;;1.90;;
29634;SDS011;16557;54.762;56.068;2022-08-18T14:56:10;9.83;;;2.50;;
29634;SDS011;16557;54.762;56.068;2022-08-18T14:58:39;23.47;;;3.17;;
29634;SDS011;16557;54.762;56.068;2022-08-18T15:01:09;5.75;;;2.00;;
29634;SDS011;16557;54.762;56.068;2022-08-18T15:03:39;7.28;;;2.00;;
29634;SDS011;16557;54.762;56.068;2022-08-18T15:06:09;8.20;;;2.05;;
29634;SDS011;16557;54.762;56.068;2022-08-18T15:08:38;8.28;;;1.92;;
29634;SDS011;16557;54.762;56.068;2022-08-18T15:11:08;8.65;;;1.85;;
29634;SDS011;16557;54.762;56.068;2022-08-18T15:13:39;8.40;;;1.95;;
29634;SDS011;16557;54.762;56.068;2022-08-18T15:16:09;9.33;;;2.30;;
29634;SDS011;16557;54.762;56.068;2022-08-18T15:18:40;6.95;;;1.90;;
29634;SDS011;16557;54.762;56.068;2022-08-18T15:21:13;9.00;;;2.02;;
29634;SDS011;16557;54.762;56.068;2022-08-18T15:24:00;9.63;;;2.37;;
29634;SDS011;16557;54.762;56.068;2022-08-18T15:26:50;7.55;;;2.40;;
29634;SDS011;16557;54.762;56.068;2022-08-18T15:29:23;9.90;;;2.05;;
29634;SDS011;16557;54.762;56.068;2022-08-18T15:31:53;3.58;;;1.72;;
29634;SDS011;16557;54.762;56.068;2022-08-18T15:34:22;9.53;;;2.20;;
29634;SDS011;16557;54.762;56.068;2022-08-18T15:36:51;3.67;;;1.87;;
29634;SDS011;16557;54.762;56.068;2022-08-18T15:39:22;3.70;;;2.02;;
29634;SDS011;16557;54.762;56.068;2022-08-18T15:41:52;7.87;;;2.22;;
29634;SDS011;16557;54.762;56.068;2022-08-18T15:44:22;6.12;;;2.17;;
29634;SDS011;16557;54.762;56.068;2022-08-18T15:46:51;10.55;;;2.12;;
29634;SDS011;16557;54.762;56.068;2022-08-18T15:49:20;8.35;;;2.25;;
29634;SDS011;16557;54.762;56.068;2022-08-18T15:51:50;5.47;;;2.33;;
29634;SDS011;16557;54.762;56.068;2022-08-18T15:54:19;9.63;;;2.30;;
29634;SDS011;16557;54.762;56.068;2022-08-18T15:56:48;6.10;;;2.30;;
29634;SDS011;16557;54.762;56.068;2022-08-18T15:59:18;7.83;;;2.33;;
29634;SDS011;16557;54.762;56.068;2022-08-18T16:01:47;11.45;;;2.70;;
29634;SDS011;16557;54.762;56.068;2022-08-18T16:04:18;9.33;;;2.17;;
29634;SDS011;16557;54.762;56.068;2022-08-18T16:06:47;6.37;;;2.47;;
29634;SDS011;16557;54.762;56.068;2022-08-18T16:09:18;12.63;;;5.90;;
29634;SDS011;16557;54.762;56.068;2022-08-18T16:11:47;10.58;;;3.05;;
29634;SDS011;16557;54.762;56.068;2022-08-18T16:14:16;10.75;;;2.02;;
29634;SDS011;16557;54.762;56.068;2022-08-18T16:16:50;4.80;;;1.60;;
29634;SDS011;16557;54.762;56.068;2022-08-18T16:19:20;6.25;;;1.72;;
29634;SDS011;16557;54.762;56.068;2022-08-18T16:21:49;6.70;;;1.90;;
29634;SDS011;16557;54.762;56.068;2022-08-18T16:24:18;9.75;;;1.87;;
29634;SDS011;16557;54.762;56.068;2022-08-18T16:26:49;7.87;;;2.50;;
29634;SDS011;16557;54.762;56.068;2022-08-18T16:29:18;7.95;;;1.85;;
29634;SDS011;16557;54.762;56.068;2022-08-18T16:31:48;7.12;;;2.20;;
29634;SDS011;16557;54.762;56.068;2022-08-18T16:34:17;5.22;;;1.85;;
29634;SDS011;16557;54.762;56.068;2022-08-18T16:36:46;4.87;;;1.80;;
29634;SDS011;16557;54.762;56.068;2022-08-18T16:39:16;3.25;;;1.90;;
29634;SDS011;16557;54.762;56.068;2022-08-18T16:41:45;6.35;;;1.85;;
29634;SDS011;16557;54.762;56.068;2022-08-18T16:44:14;3.83;;;2.17;;
29634;SDS011;16557;54.762;56.068;2022-08-18T16:46:43;7.53;;;2.00;;
29634;SDS011;16557;54.762;56.068;2022-08-18T16:49:13;9.05;;;1.90;;
29634;SDS011;16557;54.762;56.068;2022-08-18T16:51:42;4.28;;;2.20;;
29634;SDS011;16557;54.762;56.068;2022-08-18T16:54:15;7.30;;;1.72;;
29634;SDS011;16557;54.762;56.068;2022-08-18T16:56:44;6.12;;;1.70;;
29634;SDS011;16557;54.762;56.068;2022-08-18T16:59:13;6.85;;;1.60;;
29634;SDS011;16557;54.762;56.068;2022-08-18T17:02:00;5.37;;;1.67;;
29634;SDS011;16557;54.762;56.068;2022-08-18T17:04:44;8.43;;;2.15;;
29634;SDS011;16557;54.762;56.068;2022-08-18T17:07:14;7.75;;;1.80;;
29634;SDS011;16557;54.762;56.068;2022-08-18T17:09:43;6.42;;;2.05;;
29634;SDS011;16557;54.762;56.068;2022-08-18T17:12:13;9.23;;;1.95;;
29634;SDS011;16557;54.762;56.068;2022-08-18T17:14:42;8.70;;;1.87;;
29634;SDS011;16557;54.762;56.068;2022-08-18T17:17:11;7.08;;;2.15;;
29634;SDS011;16557;54.762;56.068;2022-08-18T17:19:40;12.53;;;2.10;;
29634;SDS011;16557;54.762;56.068;2022-08-18T17:22:10;3.08;;;1.52;;
29634;SDS011;16557;54.762;56.068;2022-08-18T17:24:40;4.25;;;1.42;;
29634;SDS011;16557;54.762;56.068;2022-08-18T17:27:14;10.43;;;1.82;;